createdAt,value
2022-08-20T00:01:09.257Z,9.73
2022-08-20T00:03:39.858Z,9.65
2022-08-20T00:06:16.221Z,9.88
2022-08-20T00:08:43.471Z,10.15
2022-08-20T00:11:14.435Z,9.85
2022-08-20T00:13:51.064Z,9.63
2022-08-20T00:16:19.607Z,9.50
2022-08-20T00:18:47.426Z,9.75
2022-08-20T00:21:18.804Z,10.02
2022-08-20T00:26:14.620Z,10.77
2022-08-20T00:28:41.598Z,10.70
2022-08-20T00:31:12.230Z,10.68
2022-08-20T00:33:40.058Z,9.15
2022-08-20T00:36:12.153Z,10.27
2022-08-20T00:38:40.660Z,10.18
2022-08-20T00:41:10.722Z,10.93
2022-08-20T00:43:44.282Z,10.65
2022-08-20T00:46:15.532Z,9.70
2022-08-20T00:48:45.232Z,10.35
2022-08-20T00:51:41.324Z,10.20
2022-08-20T00:54:17.427Z,9.50
2022-08-20T00:56:49.416Z,10.07
2022-08-20T01:01:54.933Z,10.20
2022-08-20T01:04:31.405Z,9.73
2022-08-20T01:06:58.035Z,10.40
2022-08-20T01:09:49.416Z,10.70
2022-08-20T01:12:13.647Z,10.75
2022-08-20T01:14:45.054Z,11.07
2022-08-20T01:17:20.674Z,10.95
2022-08-20T01:19:54.147Z,10.50
2022-08-20T01:22:53.094Z,10.88
2022-08-20T01:25:30.472Z,11.50
2022-08-20T01:27:57.949Z,11.85
2022-08-20T01:30:28.715Z,12.73
2022-08-20T01:32:55.900Z,12.00
2022-08-20T01:35:24.257Z,11.77
2022-08-20T01:37:51.424Z,11.20
2022-08-20T01:40:29.878Z,11.98
2022-08-20T01:42:59.220Z,12.55
2022-08-20T01:45:30.461Z,11.88
2022-08-20T01:47:58.851Z,12.97
2022-08-20T01:50:28.681Z,12.07
2022-08-20T01:53:15.559Z,11.85
2022-08-20T01:55:42.708Z,11.93
2022-08-20T01:58:09.599Z,12.45
2022-08-20T02:00:37.779Z,12.25
2022-08-20T02:03:04.849Z,11.55
2022-08-20T02:05:33.148Z,11.05
2022-08-20T02:08:00.485Z,10.30
2022-08-20T02:10:27.772Z,10.30
2022-08-20T02:13:00.342Z,9.90
2022-08-20T02:15:34.445Z,10.13
2022-08-20T02:18:08.938Z,9.82
2022-08-20T02:20:36.547Z,9.80
2022-08-20T02:23:04.015Z,9.73
2022-08-20T02:25:34.043Z,9.73
2022-08-20T02:28:06.618Z,9.23
2022-08-20T02:30:38.847Z,9.93
2022-08-20T02:33:09.353Z,9.23
2022-08-20T02:35:37.831Z,9.85
2022-08-20T02:38:05.054Z,9.60
2022-08-20T02:40:32.735Z,9.60
2022-08-20T02:43:00.873Z,10.05
2022-08-20T02:45:28.824Z,9.73
2022-08-20T02:47:57.138Z,9.52
2022-08-20T02:50:25.983Z,9.18
2022-08-20T02:52:52.910Z,9.82
2022-08-20T02:55:25.931Z,9.32
2022-08-20T02:57:57.933Z,9.65
2022-08-20T03:00:26.081Z,9.43
2022-08-20T03:02:52.733Z,8.73
2022-08-20T03:05:19.543Z,9.23
2022-08-20T03:07:49.267Z,9.55
2022-08-20T03:10:16.543Z,9.57
2022-08-20T03:12:43.171Z,9.00
2022-08-20T03:15:17.213Z,9.95
2022-08-20T03:17:45.286Z,9.43
2022-08-20T03:20:13.879Z,10.07
2022-08-20T03:22:40.720Z,9.07
2022-08-20T03:25:08.475Z,9.32
2022-08-20T03:27:36.271Z,9.65
2022-08-20T03:30:06.054Z,10.05
2022-08-20T03:32:32.915Z,9.90
2022-08-20T03:34:59.845Z,9.82
2022-08-20T03:37:31.130Z,9.85
2022-08-20T03:39:58.303Z,9.18
2022-08-20T03:42:25.471Z,9.40
2022-08-20T03:44:58.583Z,9.00
2022-08-20T03:47:26.458Z,9.30
2022-08-20T03:49:57.411Z,9.70
2022-08-20T03:52:24.029Z,8.98
2022-08-20T03:54:50.769Z,9.63
2022-08-20T03:57:17.743Z,8.88
2022-08-20T03:59:44.707Z,8.82
2022-08-20T04:02:12.566Z,8.27
2022-08-20T04:04:40.745Z,8.55
2022-08-20T04:07:17.300Z,8.00
2022-08-20T04:09:44.126Z,8.65
2022-08-20T04:12:13.743Z,8.63
2022-08-20T04:14:40.807Z,7.85
2022-08-20T04:17:09.945Z,8.07
2022-08-20T04:19:38.780Z,7.78
2022-08-20T04:22:07.948Z,8.35
2022-08-20T04:24:35.458Z,7.63
2022-08-20T04:27:03.141Z,8.18
2022-08-20T04:29:32.228Z,7.43
2022-08-20T04:32:00.644Z,6.35
2022-08-20T04:34:29.921Z,5.78
2022-08-20T04:36:56.617Z,6.25
2022-08-20T04:39:23.859Z,6.30
2022-08-20T04:41:50.810Z,5.82
2022-08-20T04:44:17.687Z,6.10
2022-08-20T04:46:44.419Z,6.18
2022-08-20T04:49:11.111Z,6.30
2022-08-20T04:51:37.849Z,6.53
2022-08-20T04:54:04.663Z,6.97
2022-08-20T04:56:38.425Z,6.53
2022-08-20T04:59:06.723Z,7.47
2022-08-20T05:01:33.505Z,7.18
2022-08-20T05:04:00.417Z,7.20
2022-08-20T05:06:31.308Z,6.50
2022-08-20T05:08:59.351Z,6.57
2022-08-20T05:11:35.788Z,6.35
2022-08-20T05:14:05.810Z,6.13
2022-08-20T05:16:37.669Z,7.00
2022-08-20T05:19:04.761Z,6.72
2022-08-20T05:21:31.378Z,6.30
2022-08-20T05:23:58.112Z,5.70
2022-08-20T05:26:26.508Z,6.28
2022-08-20T05:28:58.463Z,6.10
2022-08-20T05:31:32.115Z,6.28
2022-08-20T05:34:12.056Z,6.95
2022-08-20T05:36:41.527Z,6.55
2022-08-20T05:39:10.154Z,6.20
2022-08-20T05:41:38.628Z,6.07
2022-08-20T05:44:10.175Z,4.60
2022-08-20T05:46:40.688Z,4.95
2022-08-20T05:49:08.905Z,5.32
2022-08-20T05:51:37.091Z,6.13
2022-08-20T05:54:04.864Z,5.45
2022-08-20T05:56:32.067Z,5.65
2022-08-20T05:59:02.782Z,7.45
2022-08-20T06:01:29.760Z,6.13
2022-08-20T06:04:15.490Z,6.25
2022-08-20T06:06:44.742Z,5.78
2022-08-20T06:09:12.854Z,6.07
2022-08-20T06:11:39.655Z,6.28
2022-08-20T06:14:06.612Z,5.82
2022-08-20T06:16:33.567Z,5.32
2022-08-20T06:19:02.940Z,5.45
2022-08-20T06:21:30.011Z,5.95
2022-08-20T06:24:00.952Z,6.25
2022-08-20T06:28:59.275Z,5.72
2022-08-20T06:31:27.758Z,5.35
2022-08-20T06:33:54.806Z,5.15
2022-08-20T06:36:21.652Z,4.55
2022-08-20T06:38:48.675Z,5.05
2022-08-20T06:41:16.515Z,5.20
2022-08-20T06:43:43.409Z,4.63
2022-08-20T06:46:10.749Z,4.22
2022-08-20T06:48:38.105Z,4.60
2022-08-20T06:51:06.674Z,4.30
2022-08-20T06:53:33.547Z,4.30
2022-08-20T06:56:00.404Z,4.25
2022-08-20T06:58:38.120Z,4.28
2022-08-20T07:01:11.634Z,4.07
2022-08-20T07:03:54.436Z,4.03
2022-08-20T07:06:22.363Z,4.45
2022-08-20T07:08:49.128Z,3.65
2022-08-20T07:11:15.997Z,3.90
2022-08-20T07:13:42.766Z,4.18
2022-08-20T07:16:09.571Z,3.88
2022-08-20T07:18:36.713Z,3.90
2022-08-20T07:21:03.805Z,4.43
2022-08-20T07:23:31.688Z,3.97
2022-08-20T07:25:58.648Z,4.20
2022-08-20T07:28:28.937Z,3.65
2022-08-20T07:31:16.017Z,3.80
2022-08-20T07:33:44.344Z,3.78
2022-08-20T07:36:12.499Z,4.05
2022-08-20T07:38:39.362Z,3.80
2022-08-20T07:41:10.043Z,3.85
2022-08-20T07:43:37.248Z,3.33
2022-08-20T07:46:08.922Z,3.35
2022-08-20T07:48:40.333Z,3.63
2022-08-20T07:51:08.891Z,3.20
2022-08-20T07:53:37.748Z,3.28
2022-08-20T07:56:07.122Z,3.70
2022-08-20T07:58:38.264Z,3.60
2022-08-20T08:01:06.535Z,3.70
2022-08-20T08:03:40.502Z,3.30
2022-08-20T08:06:29.067Z,3.50
2022-08-20T08:09:08.159Z,3.33
2022-08-20T08:11:39.287Z,3.38
2022-08-20T08:14:09.772Z,3.30
2022-08-20T08:16:37.386Z,3.03
2022-08-20T08:19:06.982Z,3.20
2022-08-20T08:21:33.714Z,3.15
2022-08-20T08:24:00.443Z,3.45
2022-08-20T08:26:28.952Z,2.85
2022-08-20T08:28:56.275Z,2.40
2022-08-20T08:31:22.950Z,3.15
2022-08-20T08:33:49.651Z,3.03
2022-08-20T08:36:17.260Z,2.53
2022-08-20T08:38:45.758Z,2.40
2022-08-20T08:41:32.041Z,2.45
2022-08-20T08:44:20.971Z,2.30
2022-08-20T08:46:50.927Z,2.60
2022-08-20T08:49:23.115Z,2.50
2022-08-20T08:51:58.937Z,3.08
2022-08-20T08:54:29.620Z,2.97
2022-08-20T08:56:56.489Z,2.88
2022-08-20T08:59:23.610Z,2.92
2022-08-20T09:01:57.211Z,2.67
2022-08-20T09:04:31.467Z,2.40
2022-08-20T09:06:59.352Z,2.80
2022-08-20T09:09:38.923Z,2.72
2022-08-20T09:12:18.921Z,2.90
2022-08-20T09:14:48.000Z,2.33
2022-08-20T09:17:16.218Z,2.45
2022-08-20T09:19:42.931Z,2.78
2022-08-20T09:22:12.618Z,2.53
2022-08-20T09:24:40.026Z,2.90
2022-08-20T09:27:07.231Z,2.60
2022-08-20T09:29:34.095Z,2.17
2022-08-20T09:32:16.746Z,2.58
2022-08-20T09:34:46.696Z,2.50
2022-08-20T09:37:14.746Z,2.40
2022-08-20T09:39:43.359Z,2.75
2022-08-20T09:42:11.416Z,2.60
2022-08-20T09:44:38.672Z,2.60
2022-08-20T09:47:05.643Z,2.45
2022-08-20T09:49:32.668Z,2.35
2022-08-20T09:52:01.299Z,2.22
2022-08-20T09:54:30.137Z,2.42
2022-08-20T09:57:05.207Z,2.15
2022-08-20T09:59:33.756Z,2.20
2022-08-20T10:02:00.482Z,2.30
2022-08-20T10:04:27.399Z,2.42
2022-08-20T10:06:54.004Z,2.30
2022-08-20T10:09:20.982Z,2.22
2022-08-20T10:11:47.676Z,2.20
2022-08-20T10:14:14.378Z,2.15
2022-08-20T10:16:41.015Z,2.33
2022-08-20T10:19:07.869Z,2.08
2022-08-20T10:21:39.108Z,2.00
2022-08-20T10:24:06.303Z,2.03
2022-08-20T10:26:32.991Z,2.15
2022-08-20T10:28:59.852Z,2.45
2022-08-20T10:31:26.595Z,2.70
2022-08-20T10:33:53.488Z,2.20
2022-08-20T10:36:20.271Z,2.38
2022-08-20T10:38:48.515Z,2.20
2022-08-20T10:41:15.622Z,2.30
2022-08-20T10:43:42.262Z,2.83
2022-08-20T10:46:09.184Z,2.25
2022-08-20T10:48:36.049Z,2.72
2022-08-20T10:51:02.970Z,2.33
2022-08-20T10:53:29.829Z,2.63
2022-08-20T10:55:57.723Z,2.75
2022-08-20T10:58:24.941Z,2.40
2022-08-20T11:00:53.366Z,2.75
2022-08-20T11:03:20.575Z,2.25
2022-08-20T11:05:47.987Z,2.47
2022-08-20T11:08:14.648Z,2.50
2022-08-20T11:11:00.130Z,2.60
2022-08-20T11:13:26.753Z,2.90
2022-08-20T11:15:53.563Z,2.70
2022-08-20T11:18:20.211Z,3.10
2022-08-20T11:20:47.102Z,2.70
2022-08-20T11:23:15.911Z,2.67
2022-08-20T11:25:42.572Z,2.70
2022-08-20T11:28:09.572Z,2.38
2022-08-20T11:30:37.063Z,2.70
2022-08-20T11:33:04.739Z,2.60
2022-08-20T11:35:49.246Z,2.78
2022-08-20T11:38:17.490Z,2.47
2022-08-20T11:40:44.191Z,3.10
2022-08-20T11:43:16.170Z,2.70
2022-08-20T11:45:49.534Z,2.67
2022-08-20T11:48:16.843Z,2.58
2022-08-20T11:50:43.768Z,2.67
2022-08-20T11:53:10.470Z,2.95
2022-08-20T11:55:38.606Z,2.38
2022-08-20T11:58:05.751Z,2.70
2022-08-20T12:00:34.111Z,2.80
2022-08-20T12:03:02.179Z,2.88
2022-08-20T12:05:30.008Z,2.78
2022-08-20T12:07:59.813Z,2.85
2022-08-20T12:10:28.047Z,2.50
2022-08-20T12:12:55.835Z,2.42
2022-08-20T12:15:22.660Z,2.40
2022-08-20T12:17:49.292Z,2.72
2022-08-20T12:20:16.443Z,2.50
2022-08-20T12:22:44.489Z,3.03
2022-08-20T12:25:12.272Z,2.40
2022-08-20T12:27:40.100Z,2.67
2022-08-20T12:30:15.811Z,2.92
2022-08-20T12:32:42.547Z,2.72
2022-08-20T12:35:10.745Z,2.60
2022-08-20T12:37:38.287Z,2.88
2022-08-20T12:40:09.147Z,2.95
2022-08-20T12:42:36.919Z,2.83
2022-08-20T12:45:04.343Z,2.75
2022-08-20T12:47:35.546Z,3.05
2022-08-20T12:50:06.934Z,2.63
2022-08-20T12:52:34.057Z,3.30
2022-08-20T12:55:01.381Z,2.92
2022-08-20T12:57:35.525Z,3.08
2022-08-20T13:00:15.402Z,2.88
2022-08-20T13:02:42.839Z,3.20
2022-08-20T13:05:11.791Z,2.70
2022-08-20T13:07:38.685Z,3.10
2022-08-20T13:10:07.032Z,3.10
2022-08-20T13:12:33.920Z,2.75
2022-08-20T13:15:00.671Z,3.05
2022-08-20T13:17:38.047Z,2.88
2022-08-20T13:20:08.815Z,3.50
2022-08-20T13:22:35.967Z,3.30
2022-08-20T13:25:03.048Z,3.35
2022-08-20T13:27:29.895Z,3.22
2022-08-20T13:29:59.033Z,3.30
2022-08-20T13:32:28.468Z,3.30
2022-08-20T13:34:55.102Z,3.17
2022-08-20T13:37:25.547Z,3.13
2022-08-20T13:39:57.019Z,2.93
2022-08-20T13:42:24.563Z,3.95
2022-08-20T13:44:51.372Z,3.10
2022-08-20T13:47:27.694Z,3.47
2022-08-20T13:50:05.981Z,3.30
2022-08-20T13:52:33.263Z,3.55
2022-08-20T13:55:05.843Z,3.40
2022-08-20T13:57:34.305Z,2.97
2022-08-20T14:00:01.826Z,2.90
2022-08-20T14:23:36.918Z,2.20
2022-08-20T14:26:03.808Z,2.65
2022-08-20T14:28:30.435Z,3.00
2022-08-20T14:30:57.249Z,2.60
2022-08-20T14:33:24.305Z,2.70
2022-08-20T14:35:51.975Z,2.38
2022-08-20T14:38:18.709Z,2.70
2022-08-20T14:40:45.432Z,2.85
2022-08-20T14:43:12.133Z,2.67
2022-08-20T14:45:38.965Z,2.70
2022-08-20T14:48:08.340Z,3.08
2022-08-20T14:50:36.083Z,2.67
2022-08-20T14:53:02.762Z,3.00
2022-08-20T14:55:32.119Z,2.97
2022-08-20T14:57:58.995Z,2.60
2022-08-20T15:00:28.737Z,2.88
2022-08-20T15:02:55.743Z,2.60
2022-08-20T15:05:23.853Z,3.10
2022-08-20T15:07:54.146Z,3.10
2022-08-20T15:10:28.314Z,3.30
2022-08-20T15:12:55.622Z,2.85
2022-08-20T15:15:23.646Z,3.00
2022-08-20T15:17:54.914Z,3.05
2022-08-20T15:22:50.534Z,3.08
2022-08-20T15:25:20.897Z,2.85
2022-08-20T15:27:48.162Z,3.13
2022-08-20T15:30:19.675Z,2.63
2022-08-20T15:35:13.498Z,3.03
2022-08-20T15:37:47.017Z,2.92
2022-08-20T15:40:17.035Z,2.50
2022-08-20T15:42:46.686Z,2.65
2022-08-20T15:45:21.595Z,2.55
2022-08-20T15:48:17.884Z,2.60
2022-08-20T15:51:04.765Z,2.50
2022-08-20T15:53:37.481Z,2.70
2022-08-20T15:56:38.925Z,2.80
2022-08-20T15:59:20.503Z,2.53
2022-08-20T16:01:53.003Z,2.63
2022-08-20T16:04:33.408Z,2.75
2022-08-20T16:07:06.851Z,2.38
2022-08-20T16:09:53.536Z,2.50
2022-08-20T16:12:32.707Z,2.83
2022-08-20T16:15:07.291Z,3.03
2022-08-20T16:17:42.473Z,2.47
2022-08-20T16:20:18.952Z,3.10
2022-08-20T16:22:47.064Z,2.65
2022-08-20T16:25:16.211Z,2.88
2022-08-20T16:27:49.484Z,2.40
2022-08-20T16:30:39.371Z,2.80
2022-08-20T16:33:39.450Z,2.60
2022-08-20T16:36:10.769Z,2.65
2022-08-20T16:38:40.758Z,2.85
2022-08-20T16:41:15.485Z,2.75
2022-08-20T16:44:40.254Z,2.90
2022-08-20T16:47:22.428Z,2.58
2022-08-20T16:49:56.958Z,2.75
2022-08-20T16:52:23.784Z,2.60
2022-08-20T16:54:50.604Z,3.20
2022-08-20T16:57:18.583Z,3.53
2022-08-20T16:59:55.545Z,2.90
2022-08-20T17:02:23.392Z,3.00
2022-08-20T17:04:59.427Z,3.10
2022-08-20T17:07:40.122Z,3.15
2022-08-20T17:10:52.406Z,2.30
2022-08-20T17:22:19.306Z,2.67
2022-08-20T17:24:46.012Z,2.92
2022-08-20T17:27:16.910Z,3.60
2022-08-20T17:29:54.371Z,3.30
2022-08-20T17:32:29.574Z,3.75
2022-08-20T17:34:59.546Z,3.22
2022-08-20T17:37:35.904Z,4.35
2022-08-20T17:40:39.995Z,3.80
2022-08-20T17:43:09.514Z,2.88
2022-08-20T17:45:44.630Z,2.53
2022-08-20T17:48:19.280Z,2.47
2022-08-20T17:50:46.147Z,2.38
2022-08-20T17:53:33.196Z,2.60
2022-08-20T17:56:04.151Z,5.20
2022-08-20T17:58:54.357Z,6.27
2022-08-20T18:01:23.301Z,2.80
2022-08-20T18:03:52.051Z,2.80
2022-08-20T18:06:32.484Z,2.30
2022-08-20T18:09:37.195Z,2.67
2022-08-20T18:12:24.254Z,2.40
2022-08-20T18:15:06.924Z,2.35
2022-08-20T18:17:52.232Z,2.10
2022-08-20T18:20:39.705Z,2.60
2022-08-20T18:23:12.063Z,2.75
2022-08-20T18:26:04.681Z,2.70
2022-08-20T18:28:38.758Z,2.50
2022-08-20T18:31:08.927Z,2.45
2022-08-20T18:33:45.707Z,3.15
2022-08-20T18:36:30.252Z,3.05
2022-08-20T18:39:09.490Z,2.35
2022-08-20T18:41:39.380Z,2.70
2022-08-20T18:44:12.102Z,2.78
2022-08-20T18:46:52.120Z,3.15
2022-08-20T18:49:31.883Z,2.70
2022-08-20T18:52:08.509Z,2.50
2022-08-20T18:54:35.923Z,2.90
2022-08-20T18:57:32.112Z,2.22
2022-08-20T19:00:16.488Z,2.50
2022-08-20T19:03:08.515Z,2.65
2022-08-20T19:05:50.299Z,2.50
2022-08-20T19:08:20.144Z,2.58
2022-08-20T19:11:03.038Z,2.50
2022-08-20T19:13:54.226Z,2.30
2022-08-20T19:16:46.252Z,2.78
2022-08-20T19:19:18.755Z,2.60
2022-08-20T19:21:45.788Z,2.72
2022-08-20T19:24:18.601Z,2.70
2022-08-20T19:27:04.786Z,2.60
2022-08-20T19:29:47.560Z,2.45
2022-08-20T19:32:21.009Z,3.15
2022-08-20T19:35:05.866Z,3.13
2022-08-20T19:37:40.126Z,3.03
2022-08-20T19:40:28.358Z,2.90
2022-08-20T19:42:58.217Z,3.08
2022-08-20T19:45:37.196Z,3.20
2022-08-20T19:48:14.592Z,3.08
2022-08-20T19:53:48.793Z,3.42
2022-08-20T19:56:27.770Z,3.20
2022-08-20T19:58:59.734Z,2.92
2022-08-20T20:01:27.877Z,3.30
2022-08-20T20:04:15.761Z,3.58
2022-08-20T20:06:51.495Z,3.33
2022-08-20T20:09:25.463Z,3.20
2022-08-20T20:12:04.597Z,3.28
2022-08-20T20:14:37.210Z,3.75
2022-08-20T20:17:14.511Z,3.22
2022-08-20T20:19:56.597Z,2.90
2022-08-20T20:22:31.041Z,2.53
2022-08-20T20:25:05.033Z,2.33
2022-08-20T20:27:33.480Z,2.80
2022-08-20T20:30:13.074Z,2.58
2022-08-20T20:32:44.007Z,2.70
2022-08-20T20:35:11.221Z,2.88
2022-08-20T20:37:49.903Z,2.70
2022-08-20T20:40:35.839Z,2.80
2022-08-20T20:43:02.818Z,2.47
2022-08-20T20:45:33.733Z,2.67
2022-08-20T20:48:10.148Z,2.80
2022-08-20T20:50:39.818Z,2.75
2022-08-20T20:53:06.696Z,2.78
2022-08-20T20:55:38.060Z,3.10
2022-08-20T20:58:05.150Z,2.97
2022-08-20T21:03:22.214Z,3.33
2022-08-20T21:05:49.328Z,3.10
2022-08-20T21:08:15.969Z,3.13
2022-08-20T21:10:42.996Z,3.00
2022-08-20T21:13:10.639Z,3.10
2022-08-20T21:15:39.061Z,3.40
2022-08-20T21:18:08.716Z,3.15
2022-08-20T21:20:38.230Z,3.10
2022-08-20T21:23:05.455Z,3.25
2022-08-20T21:25:33.939Z,3.55
2022-08-20T21:28:01.141Z,3.15
2022-08-20T21:30:29.515Z,3.28
2022-08-20T21:32:56.221Z,2.70
2022-08-20T21:35:23.203Z,3.38
2022-08-20T21:37:50.099Z,3.10
2022-08-20T21:40:18.207Z,2.97
2022-08-20T21:42:49.015Z,3.40
2022-08-20T21:45:19.637Z,3.20
2022-08-20T21:47:48.834Z,3.33
2022-08-20T21:50:26.829Z,4.40
2022-08-20T21:55:57.053Z,4.45
2022-08-20T21:58:27.400Z,4.28
2022-08-20T22:01:13.713Z,3.95
2022-08-20T22:03:44.514Z,3.30
2022-08-20T22:09:01.555Z,2.80
2022-08-20T22:11:28.871Z,3.10
2022-08-20T22:13:57.785Z,3.53
2022-08-20T22:16:25.870Z,3.70
2022-08-20T22:18:57.811Z,3.78
2022-08-20T22:21:34.236Z,4.50
2022-08-20T22:24:11.761Z,3.47
2022-08-20T22:26:42.966Z,3.22
2022-08-20T22:29:14.652Z,2.25
2022-08-20T22:34:41.265Z,2.83
2022-08-20T22:37:08.076Z,2.33
2022-08-20T22:39:34.781Z,2.65
2022-08-20T22:42:01.513Z,3.00
2022-08-20T22:44:28.418Z,2.65
2022-08-20T22:47:01.518Z,2.70
2022-08-20T22:49:33.673Z,3.08
2022-08-20T22:55:06.916Z,3.17
2022-08-20T23:01:02.235Z,2.97
2022-08-20T23:03:39.698Z,2.92
2022-08-20T23:06:39.898Z,2.90
2022-08-20T23:09:32.071Z,3.20
2022-08-20T23:12:33.099Z,2.60
2022-08-20T23:15:10.852Z,3.20
2022-08-20T23:17:47.906Z,2.72
2022-08-20T23:20:19.966Z,2.80
2022-08-20T23:25:29.908Z,2.97
2022-08-20T23:28:04.128Z,2.50
2022-08-20T23:33:22.657Z,2.47
2022-08-20T23:35:54.520Z,2.58
2022-08-20T23:38:32.130Z,3.00
2022-08-20T23:41:00.674Z,2.70
2022-08-20T23:43:39.672Z,3.10
2022-08-20T23:49:31.462Z,3.30
2022-08-20T23:52:29.603Z,3.70
2022-08-20T23:54:58.394Z,3.47
2022-08-20T23:57:31.197Z,3.50
